Time;durP1;ratioP1;P1;durP2;ratioP2;P2;SDS_P1;SDS_P2;PMS_P1;PMS_P2;Temp;Humidity;BMP_temperature;BMP_pressure;BME280_temperature;BME280_humidity;BME280_pressure;Samples;Min_cycle;Max_cycle;Signal;HPM_P1;HPM_P2
2024/03/08 00:00:56;;;;;;;23.15;14.60;;;;;;;1.89;82.28;101535.91;4960477;28;20046;-85
2024/03/08 00:03:23;;;;;;;24.48;13.52;;;;;;;1.86;82.63;101530.63;4966045;28;20050;-85
2024/03/08 00:05:49;;;;;;;23.65;12.98;;;;;;;1.87;82.71;101534.97;4962510;28;20082;-86
2024/03/08 00:08:16;;;;;;;24.10;13.52;;;;;;;1.85;82.50;101536.59;4953635;28;20039;-86
2024/03/08 00:10:43;;;;;;;23.67;14.13;;;;;;;1.81;82.78;101527.84;4960553;28;20038;-86
2024/03/08 00:13:09;;;;;;;23.52;12.48;;;;;;;1.79;83.05;101530.38;4962552;28;20050;-86
2024/03/08 00:15:36;;;;;;;24.10;14.45;;;;;;;1.82;82.68;101524.44;4975499;28;20069;-86
2024/03/08 00:18:12;;;;;;;30.40;15.45;;;;;;;1.79;83.15;101521.75;4973019;28;20047;-84
2024/03/08 00:20:39;;;;;;;22.45;13.30;;;;;;;1.79;82.40;101530.38;4980438;28;20251;-85
2024/03/08 00:23:08;;;;;;;25.85;13.40;;;;;;;1.76;82.76;101526.78;4978519;28;20098;-84
2024/03/08 00:25:35;;;;;;;23.45;13.23;;;;;;;1.69;83.10;101524.78;4981815;28;20047;-86
2024/03/08 00:28:08;;;;;;;22.52;13.32;;;;;;;1.65;83.61;101527.22;4965885;28;20038;-85
2024/03/08 00:30:37;;;;;;;24.45;14.23;;;;;;;1.63;84.10;101534.03;4965149;28;20047;-86
2024/03/08 00:33:10;;;;;;;25.20;13.60;;;;;;;1.63;83.61;101531.44;4964580;28;20046;-87
2024/03/08 00:35:40;;;;;;;28.15;14.48;;;;;;;1.60;83.51;101526.16;4962095;28;20053;-85
2024/03/08 00:38:07;;;;;;;21.77;13.25;;;;;;;1.57;84.08;101528.59;4965345;28;20038;-86
2024/03/08 00:40:34;;;;;;;27.52;14.93;;;;;;;1.56;84.04;101525.97;4963545;28;20053;-84
2024/03/08 00:43:03;;;;;;;28.58;14.65;;;;;;;1.53;84.31;101529.28;4967398;28;20100;-87
2024/03/08 00:45:33;;;;;;;24.27;14.18;;;;;;;1.55;84.34;101525.09;4960998;28;20068;-86
2024/03/08 00:48:00;;;;;;;29.38;15.02;;;;;;;1.56;84.15;101516.50;4968438;28;20050;-86
2024/03/08 00:50:27;;;;;;;25.55;14.15;;;;;;;1.56;84.70;101518.22;4978761;28;20050;-87
2024/03/08 00:52:53;;;;;;;27.77;16.10;;;;;;;1.53;84.68;101516.38;4960913;28;20565;-86
2024/03/08 00:55:20;;;;;;;33.80;15.40;;;;;;;1.51;85.04;101511.97;4966237;28;20462;-86
2024/03/08 00:57:47;;;;;;;30.25;13.65;;;;;;;1.49;84.98;101512.78;4984083;28;20046;-86
2024/03/08 01:00:15;;;;;;;23.30;14.70;;;;;;;1.49;84.85;101499.88;4969652;28;20426;-87
2024/03/08 01:02:44;;;;;;;29.60;14.70;;;;;;;1.44;84.94;101506.56;4976690;28;20058;-85
2024/03/08 01:05:14;;;;;;;26.63;14.60;;;;;;;1.42;85.39;101502.16;4963088;28;20118;-86
2024/03/08 01:07:46;;;;;;;23.65;14.05;;;;;;;1.41;85.25;101490.06;4966103;28;20054;-85
2024/03/08 01:10:13;;;;;;;28.77;15.45;;;;;;;1.37;85.95;101485.59;4953767;28;20050;-85
2024/03/08 01:12:42;;;;;;;21.90;14.02;;;;;;;1.34;85.86;101491.50;4975305;28;20039;-85
2024/03/08 01:15:14;;;;;;;28.88;15.30;;;;;;;1.32;85.87;101486.28;4964591;28;20057;-87
2024/03/08 01:17:43;;;;;;;26.23;13.27;;;;;;;1.30;86.14;101487.03;4966526;28;20050;-85
2024/03/08 01:20:12;;;;;;;28.50;14.73;;;;;;;1.30;86.31;101481.88;4965373;28;20050;-86
2024/03/08 01:22:45;;;;;;;25.50;15.57;;;;;;;1.27;86.62;101474.88;4968121;28;20073;-86
2024/03/08 01:25:18;;;;;;;26.67;14.98;;;;;;;1.25;87.11;101467.91;4963455;28;20082;-86
2024/03/08 01:27:44;;;;;;;28.17;14.27;;;;;;;1.28;87.41;101471.50;4974339;28;20042;-85
2024/03/08 01:30:17;;;;;;;27.70;13.93;;;;;;;1.26;87.84;101462.81;4977794;28;20410;-85
2024/03/08 01:32:46;;;;;;;28.60;16.02;;;;;;;1.25;87.83;101465.31;4965200;28;20050;-85
2024/03/08 01:35:15;;;;;;;28.25;15.00;;;;;;;1.23;88.07;101454.94;4962132;28;20121;-86
2024/03/08 01:37:45;;;;;;;30.13;15.55;;;;;;;1.21;88.10;101451.41;4966710;28;20110;-87
2024/03/08 01:40:14;;;;;;;30.13;16.50;;;;;;;1.19;88.27;101447.00;4968439;28;20043;-85
2024/03/08 01:42:43;;;;;;;32.20;15.95;;;;;;;1.17;88.11;101449.53;4978279;28;20039;-85
2024/03/08 01:45:11;;;;;;;31.42;15.95;;;;;;;1.15;88.74;101448.59;4981676;28;20050;-87
2024/03/08 01:47:38;;;;;;;36.22;14.80;;;;;;;1.17;88.40;101438.34;4975472;28;20380;-86
2024/03/08 01:50:06;;;;;;;26.50;15.20;;;;;;;1.14;88.42;101442.53;4965192;28;20122;-85
2024/03/08 01:52:35;;;;;;;29.55;14.43;;;;;;;1.13;88.73;101435.66;4983338;28;20042;-85
2024/03/08 01:55:14;;;;;;;24.20;14.40;;;;;;;1.12;88.94;101436.44;4981564;28;20051;-86
2024/03/08 01:57:44;;;;;;;26.25;14.70;;;;;;;1.07;89.16;101432.78;4966553;28;20050;-86
2024/03/08 02:00:23;;;;;;;35.17;15.90;;;;;;;1.05;89.37;101430.97;4967373;28;20081;-86
2024/03/08 02:02:52;;;;;;;25.85;14.10;;;;;;;1.01;89.84;101429.09;4975635;28;20049;-86
2024/03/08 02:05:18;;;;;;;36.33;14.70;;;;;;;0.96;90.04;101427.16;4970396;28;20456;-85
2024/03/08 02:07:45;;;;;;;26.08;15.20;;;;;;;0.94;90.14;101426.22;4960835;28;20153;-86
2024/03/08 02:10:12;;;;;;;29.48;15.63;;;;;;;0.91;90.87;101426.13;4969307;28;20057;-85
2024/03/08 02:12:41;;;;;;;28.45;16.38;;;;;;;0.85;91.11;101420.69;4987672;28;20038;-87
2024/03/08 02:15:08;;;;;;;31.70;16.02;;;;;;;0.86;91.54;101427.63;4976998;28;20100;-85
2024/03/08 02:17:38;;;;;;;24.88;14.50;;;;;;;0.84;91.68;101421.50;4972009;28;20050;-83
2024/03/08 02:20:14;;;;;;;34.03;15.90;;;;;;;0.83;91.77;101417.16;4979995;28;20050;-86
2024/03/08 02:22:41;;;;;;;27.52;14.75;;;;;;;0.75;92.59;101418.53;4974246;28;20038;-87
2024/03/08 02:25:50;;;;;;;33.53;16.33;;;;;;;0.74;92.77;101406.44;4994178;28;20051;-83
2024/03/08 02:31:39;;;;;;;27.15;14.20;;;;;;;0.70;93.52;101400.28;4979859;28;20066;-87
2024/03/08 02:34:29;;;;;;;29.15;15.27;;;;;;;0.68;94.16;101404.50;4976051;28;20042;-87
2024/03/08 02:39:50;;;;;;;28.70;15.07;;;;;;;0.63;94.61;101406.84;4955959;28;20055;-86
2024/03/08 02:42:26;;;;;;;27.80;16.08;;;;;;;0.63;95.22;101400.84;4931232;28;20042;-85
2024/03/08 02:44:53;;;;;;;29.00;15.85;;;;;;;0.63;95.33;101393.09;4948738;28;20412;-85
2024/03/08 02:47:20;;;;;;;27.75;14.05;;;;;;;0.61;95.74;101392.16;4944744;28;20066;-86
2024/03/08 02:49:46;;;;;;;26.15;14.35;;;;;;;0.59;96.04;101388.63;4945265;28;20047;-85
2024/03/08 02:52:13;;;;;;;28.92;15.00;;;;;;;0.58;96.26;101387.75;4946072;28;20050;-85
2024/03/08 02:54:40;;;;;;;28.27;15.77;;;;;;;0.56;96.74;101388.47;4958779;28;20054;-85
2024/03/08 02:57:10;;;;;;;31.77;15.90;;;;;;;0.51;97.08;101382.25;4957372;28;20043;-85
2024/03/08 02:59:39;;;;;;;31.88;15.90;;;;;;;0.51;97.24;101382.25;4961397;28;20142;-87
2024/03/08 03:02:10;;;;;;;25.70;15.43;;;;;;;0.46;97.89;101379.50;4945650;28;20081;-85
2024/03/08 03:04:37;;;;;;;23.98;14.98;;;;;;;0.48;97.77;101371.00;4937191;29;20051;-84
2024/03/08 03:07:05;;;;;;;32.95;15.27;;;;;;;0.46;98.13;101364.91;4945002;28;20038;-85
2024/03/08 03:09:33;;;;;;;31.70;15.93;;;;;;;0.46;97.88;101364.03;4959390;28;20451;-85
2024/03/08 03:12:03;;;;;;;31.02;15.82;;;;;;;0.44;98.12;101355.34;4960350;28;20046;-85
2024/03/08 03:14:30;;;;;;;28.13;14.57;;;;;;;0.39;98.49;101362.00;4942819;28;21179;-83
2024/03/08 03:16:56;;;;;;;29.80;15.15;;;;;;;0.42;99.27;101357.84;4955347;28;20117;-84
2024/03/08 03:19:23;;;;;;;29.83;16.75;;;;;;;0.38;99.18;101355.97;4961541;28;20039;-86
2024/03/08 03:21:51;;;;;;;31.35;17.42;;;;;;;0.40;99.35;101363.75;4945455;28;20101;-87
2024/03/08 03:24:17;;;;;;;33.08;15.23;;;;;;;0.33;99.83;101360.03;4940389;28;20404;-86
2024/03/08 03:26:45;;;;;;;28.42;15.32;;;;;;;0.31;100.00;101354.81;4941035;28;20137;-86
2024/03/08 03:29:12;;;;;;;26.77;14.57;;;;;;;0.27;100.00;101346.88;4961625;28;20085;-85
2024/03/08 03:31:40;;;;;;;30.75;14.57;;;;;;;0.30;100.00;101350.47;4944439;28;20495;-86
2024/03/08 03:34:10;;;;;;;30.02;14.90;;;;;;;0.28;100.00;101356.38;4943437;28;20402;-86
2024/03/08 03:36:45;;;;;;;25.50;14.45;;;;;;;0.26;100.00;101355.41;4942384;28;20126;-85
2024/03/08 03:39:15;;;;;;;31.77;16.10;;;;;;;0.24;100.00;101354.47;4955504;28;20065;-84
2024/03/08 03:41:45;;;;;;;26.75;14.50;;;;;;;0.20;100.00;101356.03;4944409;28;20050;-87
2024/03/08 03:44:17;;;;;;;34.45;16.42;;;;;;;0.21;100.00;101352.66;4953403;28;20070;-86
2024/03/08 03:46:45;;;;;;;27.17;15.63;;;;;;;0.19;100.00;101346.53;4955489;28;20039;-85
2024/03/08 03:49:13;;;;;;;30.85;15.18;;;;;;;0.13;100.00;101349.72;4942108;28;20109;-86
2024/03/08 03:51:40;;;;;;;29.40;15.40;;;;;;;0.12;100.00;101355.69;4943400;28;20054;-86
2024/03/08 03:54:07;;;;;;;25.17;15.10;;;;;;;0.11;100.00;101347.91;4960052;28;20276;-87
2024/03/08 03:56:37;;;;;;;30.58;15.50;;;;;;;0.08;100.00;101340.91;4950864;28;20114;-84
2024/03/08 03:59:04;;;;;;;37.08;16.02;;;;;;;0.02;100.00;101347.50;4957253;28;20047;-85
2024/03/08 04:01:30;;;;;;;32.08;14.48;;;;;;;0.00;100.00;101355.16;4944716;28;20070;-85
2024/03/08 04:03:57;;;;;;;28.08;15.65;;;;;;;-0.03;100.00;101353.31;4959551;28;20047;-85
2024/03/08 04:06:24;;;;;;;27.58;15.10;;;;;;;-0.06;100.00;101352.28;4942533;28;20051;-86
2024/03/08 04:08:50;;;;;;;35.20;16.77;;;;;;;-0.07;100.00;101347.94;4942676;28;20042;-87
2024/03/08 04:11:20;;;;;;;32.90;16.50;;;;;;;-0.13;100.00;101340.84;4954214;28;20042;-87
2024/03/08 04:13:49;;;;;;;30.58;15.55;;;;;;;-0.15;100.00;101346.72;4944070;28;20167;-86
2024/03/08 04:16:18;;;;;;;26.48;14.95;;;;;;;-0.19;100.00;101345.69;4942627;28;20082;-86
2024/03/08 04:18:48;;;;;;;34.65;16.38;;;;;;;-0.19;100.00;101350.84;4936517;28;20051;-84
2024/03/08 04:21:19;;;;;;;40.38;17.00;;;;;;;-0.28;100.00;101342.69;4934940;28;20147;-85
2024/03/08 04:23:46;;;;;;;37.53;18.52;;;;;;;-0.29;100.00;101338.34;4940867;28;20051;-85
2024/03/08 04:26:15;;;;;;;30.70;16.90;;;;;;;-0.32;100.00;101336.53;4933805;28;20118;-85
2024/03/08 04:28:42;;;;;;;31.60;17.00;;;;;;;-0.32;100.00;101335.66;4941727;28;20262;-86
2024/03/08 04:31:08;;;;;;;32.83;17.30;;;;;;;-0.34;100.00;101330.41;4942171;28;20049;-86
2024/03/08 04:33:35;;;;;;;31.70;15.80;;;;;;;-0.36;100.00;101335.50;4939508;28;20050;-86
2024/03/08 04:36:04;;;;;;;31.00;16.13;;;;;;;-0.40;100.00;101328.44;4945572;28;20115;-85
2024/03/08 04:38:31;;;;;;;34.40;16.50;;;;;;;-0.38;100.00;101331.97;4954667;28;20043;-87
2024/03/08 04:40:59;;;;;;;29.98;16.55;;;;;;;-0.40;100.00;101327.56;4953669;28;20399;-87
2024/03/08 04:43:26;;;;;;;27.90;15.38;;;;;;;-0.44;100.00;101329.13;4954379;28;20045;-86
2024/03/08 04:45:53;;;;;;;33.05;17.02;;;;;;;-0.48;100.00;101326.31;4942015;28;20058;-85
2024/03/08 04:48:21;;;;;;;35.30;16.17;;;;;;;-0.46;100.00;101329.84;4957584;28;20053;-83
2024/03/08 04:50:48;;;;;;;35.10;16.77;;;;;;;-0.50;100.00;101326.25;4931426;28;20102;-85
2024/03/08 04:53:14;;;;;;;33.60;16.60;;;;;;;-0.56;100.00;101323.38;4947652;28;20326;-86
2024/03/08 04:55:41;;;;;;;34.65;16.42;;;;;;;-0.60;100.00;101324.06;4946230;28;20082;-84
2024/03/08 04:58:08;;;;;;;33.30;15.65;;;;;;;-0.59;100.00;101312.97;4941346;28;20054;-84
2024/03/08 05:00:35;;;;;;;29.15;15.88;;;;;;;-0.59;100.00;101315.53;4944102;28;20074;-85
2024/03/08 05:03:04;;;;;;;33.63;17.10;;;;;;;-0.62;100.00;101320.53;4946304;28;20110;-86
2024/03/08 05:05:33;;;;;;;34.47;16.20;;;;;;;-0.61;100.00;101306.84;4949981;28;20047;-85
2024/03/08 05:08:02;;;;;;;29.60;17.52;;;;;;;-0.59;100.00;101321.53;4959199;28;20597;-83
2024/03/08 05:10:29;;;;;;;33.88;16.17;;;;;;;-0.62;100.00;101320.53;4960461;28;20055;-85
2024/03/08 05:12:56;;;;;;;37.25;17.10;;;;;;;-0.62;100.00;101307.69;4941174;28;20114;-86
2024/03/08 05:15:23;;;;;;;37.50;17.05;;;;;;;-0.64;100.00;101311.88;4963159;28;20035;-85
2024/03/08 05:17:50;;;;;;;33.92;16.95;;;;;;;-0.70;100.00;101312.47;4949496;28;20070;-83
2024/03/08 05:20:17;;;;;;;31.40;16.23;;;;;;;-0.70;100.00;101318.47;4946201;28;20074;-82
2024/03/08 05:22:44;;;;;;;31.90;17.15;;;;;;;-0.66;100.00;101314.38;4942609;28;20063;-84
2024/03/08 05:25:12;;;;;;;36.78;17.65;;;;;;;-0.71;100.00;101313.28;4942235;28;20055;-85
2024/03/08 05:27:44;;;;;;;33.03;18.23;;;;;;;-0.70;100.00;101315.91;4950171;28;20584;-84
2024/03/08 05:30:14;;;;;;;34.38;18.80;;;;;;;-0.71;100.00;101324.41;4940247;28;20042;-85
2024/03/08 05:32:44;;;;;;;34.08;16.15;;;;;;;-0.73;100.00;101320.00;4941345;28;20047;-85
2024/03/08 05:35:18;;;;;;;34.38;17.25;;;;;;;-0.73;100.00;101313.19;4943100;28;20054;-86
2024/03/08 05:37:44;;;;;;;;;;;;;;;-0.74;100.00;101308.00;4953188;28;20066;-84
2024/03/08 05:40:16;;;;;;;39.35;17.15;;;;;;;-0.75;100.00;101309.66;4953394;28;19921;-85
2024/03/08 05:42:43;;;;;;;32.95;18.42;;;;;;;-0.72;100.00;101309.81;4938926;28;20516;-83
2024/03/08 05:45:14;;;;;;;32.30;17.95;;;;;;;-0.70;100.00;101315.03;4932540;28;20070;-85
2024/03/08 05:47:44;;;;;;;38.20;17.65;;;;;;;-0.70;100.00;101308.19;4952034;28;20505;-85
2024/03/08 05:50:15;;;;;;;33.47;18.02;;;;;;;-0.70;100.00;101309.91;4952864;28;20113;-84
2024/03/08 05:52:43;;;;;;;30.95;17.05;;;;;;;-0.73;100.00;101302.00;4945527;28;20058;-85
2024/03/08 05:55:10;;;;;;;32.15;18.73;;;;;;;-0.69;100.00;101307.41;4943577;28;20062;-85
2024/03/08 05:57:42;;;;;;;28.60;17.65;;;;;;;-0.65;100.00;101308.44;4932557;28;20462;-84
2024/03/08 06:00:11;;;;;;;40.55;18.30;;;;;;;-0.61;100.00;101312.00;4956544;28;20059;-85
2024/03/08 06:02:40;;;;;;;28.80;17.75;;;;;;;-0.59;100.00;101300.97;4957861;28;20047;-84
2024/03/08 06:05:19;;;;;;;41.58;21.90;;;;;;;-0.59;100.00;101302.69;4943850;28;20074;-82
2024/03/08 06:07:48;;;;;;;37.83;18.10;;;;;;;-0.61;100.00;101301.72;4940484;28;20496;-83
2024/03/08 06:10:17;;;;;;;34.08;17.52;;;;;;;-0.54;100.00;101307.22;4955480;28;20040;-83
2024/03/08 06:12:45;;;;;;;31.00;17.85;;;;;;;-0.54;100.00;101311.50;4949694;28;20051;-85
2024/03/08 06:15:14;;;;;;;34.13;19.67;;;;;;;-0.53;100.00;101302.97;4948983;28;20043;-85
2024/03/08 06:17:41;;;;;;;31.75;18.25;;;;;;;-0.49;100.00;101310.03;4945202;28;20415;-85
2024/03/08 06:20:13;;;;;;;34.45;18.27;;;;;;;-0.48;100.00;101311.78;4930247;28;20051;-85
2024/03/08 06:22:44;;;;;;;33.45;17.85;;;;;;;-0.45;100.00;101309.34;4947659;28;20047;-84
2024/03/08 06:25:21;;;;;;;35.13;18.90;;;;;;;-0.43;100.00;101307.75;4961133;28;20077;-85
2024/03/08 06:27:48;;;;;;;33.08;19.15;;;;;;;-0.40;100.00;101302.72;4950632;28;20074;-84
2024/03/08 06:30:21;;;;;;;36.33;17.60;;;;;;;-0.32;100.00;101303.06;4947244;28;20046;-84
2024/03/08 06:32:49;;;;;;;40.05;19.50;;;;;;;-0.32;100.00;101305.66;4929753;28;20039;-84
2024/03/08 06:35:20;;;;;;;39.17;19.42;;;;;;;-0.28;100.00;101298.97;4944195;28;20368;-84
2024/03/08 06:37:46;;;;;;;42.38;19.83;;;;;;;-0.27;100.00;101299.03;4943852;28;20062;-84
2024/03/08 06:40:26;;;;;;;44.55;19.17;;;;;;;-0.26;100.00;101302.47;4941422;28;20054;-85
2024/03/08 06:42:53;;;;;;;33.47;18.98;;;;;;;-0.22;100.00;101287.25;4958431;28;20113;-84
2024/03/08 06:45:21;;;;;;;28.98;17.33;;;;;;;-0.12;100.00;101293.69;4957546;28;20058;-85
2024/03/08 06:47:48;;;;;;;37.72;19.23;;;;;;;-0.04;100.00;101292.34;4947349;28;20604;-84
2024/03/08 06:50:16;;;;;;;35.88;19.42;;;;;;;0.01;100.00;101295.09;4940737;28;20043;-85
2024/03/08 06:52:53;;;;;;;37.00;19.38;;;;;;;0.11;100.00;101298.97;4960950;28;20051;-84
2024/03/08 06:55:22;;;;;;;41.42;18.38;;;;;;;0.14;100.00;101294.84;4945181;28;20070;-85
2024/03/08 06:57:49;;;;;;;44.53;21.15;;;;;;;0.31;100.00;101289.53;4953100;28;20129;-83
2024/03/08 07:00:28;;;;;;;36.85;18.42;;;;;;;1.18;100.00;101301.72;4949624;28;20050;-83
2024/03/08 07:03:00;;;;;;;43.28;19.17;;;;;;;3.83;78.93;101298.69;4943849;28;20046;-85
2024/03/08 07:05:39;;;;;;;37.22;19.50;;;;;;;5.18;71.17;101295.28;4959012;28;20127;-85
2024/03/08 07:08:06;;;;;;;27.63;17.70;;;;;;;6.09;66.58;101304.22;4946162;28;20042;-85
2024/03/08 07:10:41;;;;;;;32.40;15.57;;;;;;;6.45;63.72;101297.94;4944210;28;20057;-84
2024/03/08 07:13:08;;;;;;;33.38;16.95;;;;;;;6.68;62.63;101295.78;4957861;28;20062;-84
2024/03/08 07:15:40;;;;;;;31.17;20.48;;;;;;;7.38;58.86;101294.25;4947792;28;20054;-84
2024/03/08 07:18:08;;;;;;;30.58;16.80;;;;;;;6.59;59.73;101296.47;4963803;28;20503;-85
2024/03/08 07:20:37;;;;;;;33.03;18.35;;;;;;;7.69;57.55;101292.09;4941770;28;20055;-84
2024/03/08 07:23:08;;;;;;;30.77;17.55;;;;;;;7.28;57.86;101290.66;4943742;28;20731;-84
2024/03/08 07:25:35;;;;;;;24.77;15.75;;;;;;;7.83;56.62;101292.28;4948098;28;20089;-84
2024/03/08 07:28:02;;;;;;;32.53;17.33;;;;;;;8.65;55.32;101291.44;4959707;28;20102;-84
2024/03/08 07:33:13;;;;;;;32.38;17.27;;;;;;;9.18;52.50;101287.53;4951444;28;20034;-82
2024/03/08 07:35:45;;;;;;;28.70;17.77;;;;;;;8.87;53.84;101289.91;4966830;28;20065;-85
2024/03/08 07:38:14;;;;;;;24.60;16.33;;;;;;;9.52;52.31;101285.13;4936232;28;20233;-84
2024/03/08 07:40:49;;;;;;;34.63;17.95;;;;;;;9.26;52.21;101275.38;4956656;28;20035;-83
2024/03/08 07:43:16;;;;;;;30.40;17.08;;;;;;;9.05;51.13;101275.25;4961847;28;20047;-83
2024/03/08 07:45:43;;;;;;;25.17;17.35;;;;;;;8.77;51.54;101272.41;4961628;28;20424;-84
2024/03/08 07:48:10;;;;;;;24.80;16.40;;;;;;;9.70;50.83;101267.78;4961529;28;20045;-84
2024/03/08 07:50:39;;;;;;;26.77;16.00;;;;;;;9.68;49.81;101273.00;4946383;28;20494;-84
2024/03/08 07:53:08;;;;;;;24.90;16.08;;;;;;;9.73;50.85;101265.19;4944951;28;20050;-84
2024/03/08 07:55:36;;;;;;;28.15;17.00;;;;;;;10.23;49.92;101259.25;4960548;28;20055;-83
2024/03/08 07:58:06;;;;;;;29.33;16.52;;;;;;;9.84;50.10;101254.78;4952032;28;20098;-82
2024/03/08 08:00:32;;;;;;;28.23;16.80;;;;;;;9.04;50.41;101258.69;4956855;28;20070;-83
2024/03/08 08:03:01;;;;;;;27.75;16.95;;;;;;;8.94;51.31;101249.03;4945881;28;20038;-83
2024/03/08 08:05:30;;;;;;;35.22;17.80;;;;;;;7.32;54.49;101242.09;4949378;28;20121;-88
2024/03/08 08:08:02;;;;;;;27.05;17.58;;;;;;;4.77;61.53;101257.16;4949552;28;20439;-86
2024/03/08 08:10:29;;;;;;;28.33;16.92;;;;;;;4.10;65.71;101248.50;4939533;28;20051;-87
2024/03/08 08:13:01;;;;;;;27.63;16.90;;;;;;;3.62;68.31;101253.22;4952662;28;20035;-84
2024/03/08 08:15:30;;;;;;;29.88;17.27;;;;;;;3.59;69.50;101254.84;4938950;28;20134;-88
2024/03/08 08:17:57;;;;;;;29.15;16.52;;;;;;;3.33;71.46;101251.47;4949963;28;20046;-87
2024/03/08 08:20:26;;;;;;;32.03;18.40;;;;;;;3.12;73.64;101247.41;4946565;28;20043;-86
2024/03/08 08:22:55;;;;;;;31.95;18.42;;;;;;;3.15;73.92;101257.84;4968530;28;20132;-87
2024/03/08 08:25:28;;;;;;;32.63;18.88;;;;;;;3.24;73.88;101247.75;4958305;28;20038;-89
2024/03/08 08:27:57;;;;;;;31.75;17.50;;;;;;;3.24;74.28;101250.34;4959810;28;20065;-87
2024/03/08 08:30:24;;;;;;;34.95;19.27;;;;;;;3.14;75.08;101251.78;4961381;28;20102;-87
2024/03/08 08:32:51;;;;;;;35.80;20.05;;;;;;;3.23;74.58;101247.72;4952210;29;20554;-90
2024/03/08 08:35:20;;;;;;;32.65;18.73;;;;;;;3.29;74.51;101246.19;4951939;28;20067;-85
2024/03/08 08:37:50;;;;;;;35.03;18.75;;;;;;;3.16;75.24;101243.22;4975311;28;20073;-85
2024/03/08 08:40:26;;;;;;;29.50;18.25;;;;;;;3.28;75.48;101241.84;4949834;28;20141;-85
2024/03/08 08:42:57;;;;;;;36.45;17.55;;;;;;;3.56;74.32;101240.09;4962546;28;20055;-84
2024/03/08 08:45:24;;;;;;;33.03;19.55;;;;;;;3.73;73.29;101231.91;4953200;28;20054;-86
2024/03/08 08:47:52;;;;;;;32.15;18.23;;;;;;;3.89;72.68;101231.53;4959456;28;20039;-84
2024/03/08 08:50:22;;;;;;;37.95;19.08;;;;;;;3.75;72.60;101235.44;4943948;28;20518;-86
2024/03/08 08:52:52;;;;;;;38.15;20.85;;;;;;;3.89;72.46;101228.06;4923425;28;20435;-85
2024/03/08 08:55:20;;;;;;;32.75;18.52;;;;;;;3.87;72.02;101229.72;4951805;28;20074;-84
2024/03/08 08:57:51;;;;;;;34.72;18.67;;;;;;;3.98;71.80;101224.00;4969109;28;20053;-84
2024/03/08 09:00:26;;;;;;;34.40;20.90;;;;;;;4.18;71.10;101228.84;4964631;28;20098;-85
2024/03/08 09:02:57;;;;;;;33.65;19.67;;;;;;;4.37;70.46;101229.31;4951421;28;20071;-85
2024/03/08 09:05:24;;;;;;;35.08;19.13;;;;;;;4.20;70.25;101215.91;4952116;28;20054;-85
2024/03/08 09:07:55;;;;;;;32.08;19.30;;;;;;;4.23;70.65;101214.28;4965599;28;20057;-84
2024/03/08 09:10:27;;;;;;;33.85;18.70;;;;;;;4.15;70.59;101215.81;4971585;28;20093;-83
2024/03/08 09:13:04;;;;;;;35.55;19.40;;;;;;;4.38;69.98;101212.94;4951334;28;20051;-85
2024/03/08 09:15:34;;;;;;;33.15;20.42;;;;;;;4.42;70.24;101214.75;4951759;28;20043;-86
2024/03/08 09:18:02;;;;;;;28.50;18.00;;;;;;;4.18;70.53;101204.66;4965671;28;20049;-85
2024/03/08 09:20:53;;;;;;;29.98;20.63;;;;;;;4.42;70.23;101213.06;4947657;28;20055;-85
2024/03/08 09:23:21;;;;;;;29.13;18.25;;;;;;;4.54;69.08;101209.91;4950089;28;20197;-82
2024/03/08 09:26:12;;;;;;;32.58;18.25;;;;;;;4.56;68.92;101210.81;4962779;28;20317;-82
2024/03/08 09:28:42;;;;;;;27.30;17.92;;;;;;;4.49;69.43;101206.31;4931216;28;20195;-85
2024/03/08 09:31:17;;;;;;;36.90;22.08;;;;;;;4.49;69.32;101195.94;4952007;28;20070;-84
2024/03/08 09:33:59;;;;;;;30.85;18.98;;;;;;;4.50;68.62;101194.22;4952062;28;20042;-83
2024/03/08 09:36:27;;;;;;;31.63;19.73;;;;;;;4.55;69.37;101190.00;4960355;28;20051;-85
2024/03/08 09:38:56;;;;;;;32.65;18.05;;;;;;;4.63;69.22;101193.69;4946049;28;20114;-83
2024/03/08 09:41:35;;;;;;;34.80;20.58;;;;;;;4.67;68.59;101179.94;4948519;28;20039;-82
2024/03/08 09:44:03;;;;;;;33.33;17.98;;;;;;;4.82;68.88;101173.38;4959086;28;20055;-84
2024/03/08 09:46:31;;;;;;;30.92;18.13;;;;;;;5.06;67.59;101176.53;4958651;28;20051;-82
2024/03/08 09:48:59;;;;;;;31.55;18.98;;;;;;;5.22;66.75;101163.88;4929198;28;20760;-83
2024/03/08 09:51:35;;;;;;;29.27;17.98;;;;;;;5.04;65.99;101164.34;4945990;28;20054;-84
2024/03/08 09:54:08;;;;;;;31.17;18.30;;;;;;;5.30;66.43;101164.91;4962177;28;20042;-83
2024/03/08 09:56:47;;;;;;;31.13;17.73;;;;;;;5.35;65.87;101154.63;4946199;28;20058;-83
2024/03/08 10:02:22;;;;;;;30.30;17.42;;;;;;;5.50;65.41;101144.56;4950587;28;20126;-83
2024/03/08 10:04:53;;;;;;;31.25;18.92;;;;;;;6.16;64.34;101134.50;4948902;28;20057;-84
2024/03/08 10:07:25;;;;;;;30.25;17.67;;;;;;;8.40;58.27;101139.00;4946953;28;20054;-83
2024/03/08 10:09:55;;;;;;;26.48;17.52;;;;;;;9.46;54.86;101120.44;4947883;28;20068;-82
2024/03/08 10:12:23;;;;;;;31.38;17.83;;;;;;;11.01;52.04;101110.88;4959581;28;20527;-83
2024/03/08 10:15:12;;;;;;;30.75;17.88;;;;;;;11.57;49.45;101105.38;4945574;28;20608;-83
2024/03/08 10:18:02;;;;;;;28.80;18.65;;;;;;;10.74;48.98;101104.84;4959574;28;20101;-82
2024/03/08 10:20:41;;;;;;;28.10;17.55;;;;;;;10.38;48.24;101093.56;4945071;28;20049;-83
2024/03/08 10:23:09;;;;;;;24.92;18.05;;;;;;;10.52;47.90;101098.78;4959171;28;20078;-83
2024/03/08 10:25:37;;;;;;;28.52;18.42;;;;;;;11.02;48.02;101093.41;4942120;28;20537;-82
2024/03/08 10:28:08;;;;;;;28.98;18.50;;;;;;;11.60;46.51;101087.00;4944061;28;20043;-83
2024/03/08 10:30:39;;;;;;;26.55;18.25;;;;;;;11.52;46.07;101080.94;4957605;28;20055;-82
2024/03/08 10:33:06;;;;;;;28.70;18.02;;;;;;;11.51;46.68;101087.06;4946431;28;20081;-82
2024/03/08 10:35:37;;;;;;;25.38;17.33;;;;;;;11.91;46.30;101073.69;4946174;28;20070;-84
2024/03/08 10:41:30;;;;;;;28.17;17.52;;;;;;;12.12;45.24;101080.53;4975700;28;20041;-84
2024/03/08 10:45:08;;;;;;;26.52;18.38;;;;;;;11.98;45.07;101077.16;4959502;28;20019;-83
2024/03/08 10:50:34;;;;;;;29.75;18.23;;;;;;;12.00;44.83;101088.50;5560143;23;20095;-82
2024/03/08 10:56:28;;;;;;;29.05;18.33;;;;;;;10.24;49.04;101067.34;4982060;28;20050;-84
2024/03/08 10:59:17;;;;;;;26.17;17.87;;;;;;;10.32;48.39;101072.59;4976056;28;20031;-84
2024/03/08 11:01:45;;;;;;;30.60;18.58;;;;;;;10.10;48.46;101074.34;4967161;28;20034;-82
2024/03/08 11:04:12;;;;;;;28.23;18.48;;;;;;;10.79;48.60;101064.69;4962715;28;20113;-83
2024/03/08 11:06:39;;;;;;;27.40;18.52;;;;;;;12.32;45.88;101066.34;4957158;28;20063;-83
2024/03/08 11:09:42;;;;;;;28.98;17.23;;;;;;;11.75;45.05;101058.03;4963600;28;20054;-83
2024/03/08 11:12:30;;;;;;;23.17;16.60;;;;;;;11.84;44.93;101051.88;4948891;28;20067;-83
2024/03/08 11:15:18;;;;;;;25.92;17.38;;;;;;;12.45;45.14;101056.59;4965131;28;20042;-82
2024/03/08 11:17:50;;;;;;;28.73;18.08;;;;;;;12.51;44.29;101043.41;4959784;28;20047;-82
2024/03/08 11:33:59;;;;;;;24.50;17.92;;;;;;;14.07;41.89;100992.13;5540343;23;20502;-88
2024/03/08 11:36:35;;;;;;;31.35;19.98;;;;;;;14.05;40.85;101001.84;4959293;28;20086;-90
2024/03/08 11:39:14;;;;;;;25.98;18.17;;;;;;;13.53;42.38;101000.94;4957284;28;20058;-93
2024/03/08 11:41:46;;;;;;;27.60;17.45;;;;;;;13.54;42.04;100989.50;4935128;28;20039;-89
2024/03/08 11:44:15;;;;;;;27.08;18.33;;;;;;;13.72;41.72;100996.25;4937895;28;20081;-91
2024/03/08 11:46:47;;;;;;;27.67;18.75;;;;;;;12.97;41.48;100992.06;4920220;29;20058;-89
2024/03/08 11:49:25;;;;;;;27.35;17.05;;;;;;;14.14;40.70;100968.34;4944683;29;20036;-88
2024/03/08 11:52:01;;;;;;;26.95;17.42;;;;;;;13.51;41.31;100978.19;4926809;29;20166;-89
2024/03/08 11:54:37;;;;;;;24.35;15.45;;;;;;;13.79;40.97;100959.31;4954310;28;20038;-88
2024/03/08 11:57:06;;;;;;;24.05;16.15;;;;;;;14.12;39.80;100970.13;4908748;28;20051;-92
2024/03/08 12:03:12;;;;;;;24.42;17.27;;;;;;;14.76;39.40;100960.09;4918202;28;20066;-89
2024/03/08 12:08:49;;;;;;;25.52;18.23;;;;;;;14.60;40.14;100941.09;4941432;28;20054;-89